Airway Heights, WA

1:23 PM PDT on September 02, 2014 (GMT -0700)
Spokane International | Change Station
CLOSE
Current Station
Airport
Location: Spokane,
Elevation: 2365 ft
Nearby Weather Stations

Elev 2365 ft 47.62 °N, 117.53 °W | Updated 30 minutes ago

Mostly Cloudy
Mostly Cloudy
70 °F
Feels Like 70 °F
N
12
Wind Variable Wind from SW
Gusts 22 mph

Today
High -- | Low -- °F
--% Chance of Precip.
Yesterday
High -- | Low -- °F
Precip. -- in
6:10 AM 7:28 PM
First Quarter, 54% visible
Pressure 29.77 in
Visibility 10.0 miles
Clouds Scattered Clouds 5500 ft
Mostly Cloudy 20000 ft
Dew Point 43 °F
Humidity 38%
Rainfall 0.00 in
Snow Depth Not available.
UV 4 out of 12
Pollen 6.40 out of 12
PM2.5 Good
Flu Activity Not available.
METAR KGEG 021953Z 23010G19KT 10SM SCT055 BKN200 21/06 A2980 RMK AO2 SLP080 T02110061

More Conditions Fewer Conditions

Pressure 29.77 in
Visibility 10.0 miles
Clouds Scattered Clouds 5500 ft
Mostly Cloudy 20000 ft
Dew Point 43 °F
Humidity 38%
Rainfall 0.00 in
Snow Depth Not available.
UV 4 out of 12
Pollen 6.40 out of 12
PM2.5 Good
Flu Activity Not available.
METAR KGEG 021953Z 23010G19KT 10SM SCT055 BKN200 21/06 A2980 RMK AO2 SLP080 T02110061

More Conditions Fewer Conditions

10-Day Weather Forecast

Almanac

Astronomy

Sep. 02, 2014 Rise Set
Actual Time 6:10 AM PDT 7:28 PM PDT
Civil Twilight 5:38 AM PDT 8:00 PM PDT
Nautical Twilight 4:59 AM PDT 8:38 PM PDT
Astronomical Twilight 4:18 AM PDT 9:19 PM PDT
Moon 2:29 PM PDT 11:56 PM PDT
Length of Visible Light 14h 21m
Length of Day
13h 18m
Tomorrow will be 3m 19s shorter.
First Quarter, 54% of the Moon is Illuminated
Today
First Quarter
Sep 8
Full
Sep 15
Last Quarter
Sep 24
New
Oct 1
First Quarter

Today's Extremes

State Highs State Lows

Community

WunderPhotos

Upload Photos

1,749,757 photos uploaded!

WunderBlogs® & News

By Dr. Jeff Masters
Director of Meteorology, Weather Underground
By Kari Strenfel
Meteorologist, Weather Underground
By Christopher C. Burt
Weather Historian, Weather Underground
September 2, 2014
September 2, 2014
September 2, 2014

Nearby

Air Quality

  Air Quality AQ Index Pollutant
Yesterday Good
OZONE
Yesterday Good
PM10
Current Good
PM2.5
Tuesday Good
PM10
Tuesday Good
OZONE
Wednesday Good
PM10
Wednesday Good
OZONE

Snow Depth

Station Depth Elevation
Quartz Peak 1 in 4700 ft
Moses Mountain 1 in 5300 ft
Sentinel Butte 0 in 4920 ft
Sourdough Gulch 0 in 4000 ft
Trough 0 in 5300 ft

Earthquake Activity

City Distance Mag. Time & Date
Mullan, Idaho 84 miles 2.5 1:01 AM PDT
2014-08-31
Minimum magnitude displayed is 2.5.

Coastal Water Temperatures

Place Temperature
No Stations Reporting

Nearby Weather Stations